sensor_id;sensor_type;location;lat;lon;timestamp;P1;durP1;ratioP1;P2;durP2;ratioP2
66342;SDS011;53144;51.524;5.080;2023-08-06T00:01:37;5.80;;;3.35;;
66342;SDS011;53144;51.524;5.080;2023-08-06T00:04:03;5.35;;;3.30;;
66342;SDS011;53144;51.524;5.080;2023-08-06T00:06:28;6.00;;;3.47;;
66342;SDS011;53144;51.524;5.080;2023-08-06T00:08:54;6.05;;;3.38;;
66342;SDS011;53144;51.524;5.080;2023-08-06T00:11:20;4.38;;;3.60;;
66342;SDS011;53144;51.524;5.080;2023-08-06T00:13:45;4.45;;;3.55;;
66342;SDS011;53144;51.524;5.080;2023-08-06T00:16:11;5.90;;;3.67;;
66342;SDS011;53144;51.524;5.080;2023-08-06T00:18:37;4.88;;;3.35;;
66342;SDS011;53144;51.524;5.080;2023-08-06T00:21:03;6.32;;;3.72;;
66342;SDS011;53144;51.524;5.080;2023-08-06T00:23:29;6.53;;;3.75;;
66342;SDS011;53144;51.524;5.080;2023-08-06T00:25:54;6.32;;;3.70;;
66342;SDS011;53144;51.524;5.080;2023-08-06T00:28:20;4.20;;;3.30;;
66342;SDS011;53144;51.524;5.080;2023-08-06T00:30:45;3.50;;;3.20;;
66342;SDS011;53144;51.524;5.080;2023-08-06T00:33:10;5.20;;;3.40;;
66342;SDS011;53144;51.524;5.080;2023-08-06T00:35:36;6.32;;;3.55;;
66342;SDS011;53144;51.524;5.080;2023-08-06T00:38:01;5.18;;;3.30;;
66342;SDS011;53144;51.524;5.080;2023-08-06T00:40:27;5.80;;;3.63;;
66342;SDS011;53144;51.524;5.080;2023-08-06T00:42:55;7.95;;;4.53;;
66342;SDS011;53144;51.524;5.080;2023-08-06T00:45:20;4.97;;;3.58;;
66342;SDS011;53144;51.524;5.080;2023-08-06T00:47:47;6.50;;;3.75;;
66342;SDS011;53144;51.524;5.080;2023-08-06T00:50:12;5.75;;;3.55;;
66342;SDS011;53144;51.524;5.080;2023-08-06T00:52:38;4.78;;;3.72;;
66342;SDS011;53144;51.524;5.080;2023-08-06T00:55:04;8.45;;;3.88;;
66342;SDS011;53144;51.524;5.080;2023-08-06T00:57:30;7.82;;;3.83;;
66342;SDS011;53144;51.524;5.080;2023-08-06T00:59:56;5.30;;;3.88;;
66342;SDS011;53144;51.524;5.080;2023-08-06T01:02:21;7.38;;;3.83;;
66342;SDS011;53144;51.524;5.080;2023-08-06T01:04:47;7.38;;;3.50;;
66342;SDS011;53144;51.524;5.080;2023-08-06T01:07:33;4.50;;;3.83;;
66342;SDS011;53144;51.524;5.080;2023-08-06T01:15:18;6.50;;;3.50;;
66342;SDS011;53144;51.524;5.080;2023-08-06T01:17:47;4.68;;;3.60;;
66342;SDS011;53144;51.524;5.080;2023-08-06T01:20:13;3.97;;;3.63;;
66342;SDS011;53144;51.524;5.080;2023-08-06T01:22:38;6.38;;;3.60;;
66342;SDS011;53144;51.524;5.080;2023-08-06T01:25:04;5.15;;;4.00;;
66342;SDS011;53144;51.524;5.080;2023-08-06T01:27:33;5.57;;;3.45;;
66342;SDS011;53144;51.524;5.080;2023-08-06T01:30:18;11.52;;;4.45;;
66342;SDS011;53144;51.524;5.080;2023-08-06T01:32:48;4.57;;;3.75;;
66342;SDS011;53144;51.524;5.080;2023-08-06T01:35:17;5.97;;;3.78;;
66342;SDS011;53144;51.524;5.080;2023-08-06T01:37:45;9.32;;;4.10;;
66342;SDS011;53144;51.524;5.080;2023-08-06T01:40:11;5.40;;;3.97;;
66342;SDS011;53144;51.524;5.080;2023-08-06T01:42:38;6.20;;;3.80;;
66342;SDS011;53144;51.524;5.080;2023-08-06T01:45:04;7.10;;;4.00;;
66342;SDS011;53144;51.524;5.080;2023-08-06T01:47:31;5.68;;;4.10;;
66342;SDS011;53144;51.524;5.080;2023-08-06T01:49:56;4.88;;;4.13;;
66342;SDS011;53144;51.524;5.080;2023-08-06T01:52:22;6.50;;;4.18;;
66342;SDS011;53144;51.524;5.080;2023-08-06T01:54:47;5.43;;;4.10;;
66342;SDS011;53144;51.524;5.080;2023-08-06T01:57:12;6.75;;;4.25;;
66342;SDS011;53144;51.524;5.080;2023-08-06T01:59:38;17.75;;;4.50;;
66342;SDS011;53144;51.524;5.080;2023-08-06T02:02:03;6.28;;;4.15;;
66342;SDS011;53144;51.524;5.080;2023-08-06T02:04:29;5.95;;;4.22;;
66342;SDS011;53144;51.524;5.080;2023-08-06T02:06:55;9.15;;;4.75;;
66342;SDS011;53144;51.524;5.080;2023-08-06T02:09:20;6.13;;;4.40;;
66342;SDS011;53144;51.524;5.080;2023-08-06T02:11:45;10.20;;;4.35;;
66342;SDS011;53144;51.524;5.080;2023-08-06T02:14:11;7.90;;;4.85;;
66342;SDS011;53144;51.524;5.080;2023-08-06T02:16:37;6.65;;;4.40;;
66342;SDS011;53144;51.524;5.080;2023-08-06T02:19:02;7.53;;;4.38;;
66342;SDS011;53144;51.524;5.080;2023-08-06T02:21:27;6.22;;;4.65;;
66342;SDS011;53144;51.524;5.080;2023-08-06T02:23:53;7.20;;;4.35;;
66342;SDS011;53144;51.524;5.080;2023-08-06T02:26:18;4.93;;;4.38;;
66342;SDS011;53144;51.524;5.080;2023-08-06T02:28:44;6.28;;;4.80;;
66342;SDS011;53144;51.524;5.080;2023-08-06T02:31:09;6.85;;;4.75;;
66342;SDS011;53144;51.524;5.080;2023-08-06T02:33:34;6.55;;;4.57;;
66342;SDS011;53144;51.524;5.080;2023-08-06T02:36:03;6.40;;;4.50;;
66342;SDS011;53144;51.524;5.080;2023-08-06T02:38:29;6.00;;;4.75;;
66342;SDS011;53144;51.524;5.080;2023-08-06T02:40:57;10.07;;;4.57;;
66342;SDS011;53144;51.524;5.080;2023-08-06T02:43:23;4.95;;;4.45;;
66342;SDS011;53144;51.524;5.080;2023-08-06T02:45:48;7.50;;;4.35;;
66342;SDS011;53144;51.524;5.080;2023-08-06T02:48:21;6.47;;;4.50;;
66342;SDS011;53144;51.524;5.080;2023-08-06T02:50:46;7.28;;;4.90;;
66342;SDS011;53144;51.524;5.080;2023-08-06T02:53:12;8.57;;;4.53;;
66342;SDS011;53144;51.524;5.080;2023-08-06T02:55:37;7.72;;;5.15;;
66342;SDS011;53144;51.524;5.080;2023-08-06T02:58:03;6.75;;;4.70;;
66342;SDS011;53144;51.524;5.080;2023-08-06T03:00:28;11.73;;;5.10;;
66342;SDS011;53144;51.524;5.080;2023-08-06T03:02:54;17.55;;;5.68;;
66342;SDS011;53144;51.524;5.080;2023-08-06T03:05:20;5.75;;;4.78;;
66342;SDS011;53144;51.524;5.080;2023-08-06T03:07:45;6.32;;;4.85;;
66342;SDS011;53144;51.524;5.080;2023-08-06T03:10:11;6.47;;;5.07;;
66342;SDS011;53144;51.524;5.080;2023-08-06T03:12:36;6.97;;;4.90;;
66342;SDS011;53144;51.524;5.080;2023-08-06T03:15:02;8.98;;;4.60;;
66342;SDS011;53144;51.524;5.080;2023-08-06T03:17:27;7.43;;;5.13;;
66342;SDS011;53144;51.524;5.080;2023-08-06T03:19:53;8.57;;;6.05;;
66342;SDS011;53144;51.524;5.080;2023-08-06T03:22:18;7.95;;;5.50;;
66342;SDS011;53144;51.524;5.080;2023-08-06T03:24:43;6.80;;;5.15;;
66342;SDS011;53144;51.524;5.080;2023-08-06T03:27:09;7.63;;;5.53;;
66342;SDS011;53144;51.524;5.080;2023-08-06T03:29:34;8.73;;;5.53;;
66342;SDS011;53144;51.524;5.080;2023-08-06T03:31:59;9.07;;;5.40;;
66342;SDS011;53144;51.524;5.080;2023-08-06T03:34:25;10.13;;;5.28;;
66342;SDS011;53144;51.524;5.080;2023-08-06T03:36:51;8.93;;;5.20;;
66342;SDS011;53144;51.524;5.080;2023-08-06T03:39:16;7.13;;;5.45;;
66342;SDS011;53144;51.524;5.080;2023-08-06T03:41:41;8.23;;;5.65;;
66342;SDS011;53144;51.524;5.080;2023-08-06T03:44:07;8.02;;;5.25;;
66342;SDS011;53144;51.524;5.080;2023-08-06T03:46:32;11.40;;;5.80;;
66342;SDS011;53144;51.524;5.080;2023-08-06T03:48:59;7.68;;;5.25;;
66342;SDS011;53144;51.524;5.080;2023-08-06T03:51:24;7.82;;;5.25;;
66342;SDS011;53144;51.524;5.080;2023-08-06T03:53:50;6.50;;;5.20;;
66342;SDS011;53144;51.524;5.080;2023-08-06T03:56:16;6.18;;;4.95;;
66342;SDS011;53144;51.524;5.080;2023-08-06T03:58:41;6.72;;;5.05;;
66342;SDS011;53144;51.524;5.080;2023-08-06T04:01:07;7.35;;;5.35;;
66342;SDS011;53144;51.524;5.080;2023-08-06T04:03:32;8.63;;;5.32;;
66342;SDS011;53144;51.524;5.080;2023-08-06T04:05:57;10.60;;;5.80;;
66342;SDS011;53144;51.524;5.080;2023-08-06T04:08:23;7.97;;;5.30;;
66342;SDS011;53144;51.524;5.080;2023-08-06T04:10:52;7.50;;;5.35;;
66342;SDS011;53144;51.524;5.080;2023-08-06T04:13:18;9.13;;;5.22;;
66342;SDS011;53144;51.524;5.080;2023-08-06T04:15:44;8.93;;;5.47;;
66342;SDS011;53144;51.524;5.080;2023-08-06T04:18:10;9.30;;;5.65;;
66342;SDS011;53144;51.524;5.080;2023-08-06T04:20:42;8.93;;;5.80;;
66342;SDS011;53144;51.524;5.080;2023-08-06T04:23:10;7.18;;;5.90;;
66342;SDS011;53144;51.524;5.080;2023-08-06T04:25:36;8.85;;;5.88;;
66342;SDS011;53144;51.524;5.080;2023-08-06T04:28:01;8.77;;;5.63;;
66342;SDS011;53144;51.524;5.080;2023-08-06T04:30:27;8.63;;;6.07;;
66342;SDS011;53144;51.524;5.080;2023-08-06T04:32:52;6.93;;;5.65;;
66342;SDS011;53144;51.524;5.080;2023-08-06T04:35:18;9.35;;;5.47;;
66342;SDS011;53144;51.524;5.080;2023-08-06T04:37:43;10.27;;;5.78;;
66342;SDS011;53144;51.524;5.080;2023-08-06T04:40:09;7.80;;;5.35;;
66342;SDS011;53144;51.524;5.080;2023-08-06T04:42:34;9.65;;;5.97;;
66342;SDS011;53144;51.524;5.080;2023-08-06T04:45:01;10.20;;;5.57;;
66342;SDS011;53144;51.524;5.080;2023-08-06T04:47:27;8.85;;;5.57;;
66342;SDS011;53144;51.524;5.080;2023-08-06T04:49:52;10.55;;;5.82;;
66342;SDS011;53144;51.524;5.080;2023-08-06T04:52:18;11.95;;;6.50;;
66342;SDS011;53144;51.524;5.080;2023-08-06T04:54:43;9.90;;;6.72;;
66342;SDS011;53144;51.524;5.080;2023-08-06T04:57:09;9.20;;;6.65;;
66342;SDS011;53144;51.524;5.080;2023-08-06T04:59:35;11.50;;;7.13;;
66342;SDS011;53144;51.524;5.080;2023-08-06T05:02:00;10.20;;;6.97;;
66342;SDS011;53144;51.524;5.080;2023-08-06T05:04:26;9.18;;;5.93;;
66342;SDS011;53144;51.524;5.080;2023-08-06T05:06:52;6.60;;;5.53;;
66342;SDS011;53144;51.524;5.080;2023-08-06T05:09:17;8.60;;;5.40;;
66342;SDS011;53144;51.524;5.080;2023-08-06T05:11:43;5.30;;;4.28;;
66342;SDS011;53144;51.524;5.080;2023-08-06T05:14:08;4.57;;;3.95;;
66342;SDS011;53144;51.524;5.080;2023-08-06T05:16:33;5.22;;;3.95;;
66342;SDS011;53144;51.524;5.080;2023-08-06T05:18:59;5.35;;;3.70;;
66342;SDS011;53144;51.524;5.080;2023-08-06T05:21:24;4.60;;;3.53;;
66342;SDS011;53144;51.524;5.080;2023-08-06T05:23:49;3.40;;;3.10;;
66342;SDS011;53144;51.524;5.080;2023-08-06T05:26:15;4.43;;;3.42;;
66342;SDS011;53144;51.524;5.080;2023-08-06T05:28:43;4.03;;;3.45;;
66342;SDS011;53144;51.524;5.080;2023-08-06T05:31:09;5.70;;;3.30;;
66342;SDS011;53144;51.524;5.080;2023-08-06T05:33:34;4.57;;;2.90;;
66342;SDS011;53144;51.524;5.080;2023-08-06T05:36:00;7.03;;;3.30;;
66342;SDS011;53144;51.524;5.080;2023-08-06T05:38:25;5.13;;;3.35;;
66342;SDS011;53144;51.524;5.080;2023-08-06T05:40:50;5.35;;;4.15;;
66342;SDS011;53144;51.524;5.080;2023-08-06T05:43:16;6.80;;;4.07;;
66342;SDS011;53144;51.524;5.080;2023-08-06T05:45:45;4.20;;;3.40;;
66342;SDS011;53144;51.524;5.080;2023-08-06T05:48:11;4.07;;;2.67;;
66342;SDS011;53144;51.524;5.080;2023-08-06T05:50:37;3.83;;;2.05;;
66342;SDS011;53144;51.524;5.080;2023-08-06T05:53:02;3.78;;;2.20;;
66342;SDS011;53144;51.524;5.080;2023-08-06T05:55:28;2.38;;;2.17;;
66342;SDS011;53144;51.524;5.080;2023-08-06T05:57:53;4.95;;;2.65;;
66342;SDS011;53144;51.524;5.080;2023-08-06T06:00:19;6.28;;;2.70;;
66342;SDS011;53144;51.524;5.080;2023-08-06T06:02:45;5.38;;;2.97;;
66342;SDS011;53144;51.524;5.080;2023-08-06T06:07:36;5.97;;;3.05;;
66342;SDS011;53144;51.524;5.080;2023-08-06T06:10:02;5.88;;;4.18;;
66342;SDS011;53144;51.524;5.080;2023-08-06T06:12:27;9.15;;;4.28;;
66342;SDS011;53144;51.524;5.080;2023-08-06T06:14:52;7.30;;;4.18;;
66342;SDS011;53144;51.524;5.080;2023-08-06T06:19:43;4.70;;;4.20;;
66342;SDS011;53144;51.524;5.080;2023-08-06T06:22:09;6.93;;;4.70;;
66342;SDS011;53144;51.524;5.080;2023-08-06T06:24:34;6.60;;;5.00;;
66342;SDS011;53144;51.524;5.080;2023-08-06T06:29:25;7.95;;;5.28;;
66342;SDS011;53144;51.524;5.080;2023-08-06T06:34:16;8.32;;;5.88;;
66342;SDS011;53144;51.524;5.080;2023-08-06T06:36:41;12.82;;;5.90;;
66342;SDS011;53144;51.524;5.080;2023-08-06T06:39:06;10.00;;;6.22;;
66342;SDS011;53144;51.524;5.080;2023-08-06T06:41:33;11.88;;;6.43;;
66342;SDS011;53144;51.524;5.080;2023-08-06T06:46:24;8.90;;;6.10;;
66342;SDS011;53144;51.524;5.080;2023-08-06T06:48:49;11.80;;;9.07;;
66342;SDS011;53144;51.524;5.080;2023-08-06T06:51:14;9.73;;;6.50;;
66342;SDS011;53144;51.524;5.080;2023-08-06T06:53:40;10.40;;;6.43;;
66342;SDS011;53144;51.524;5.080;2023-08-06T06:56:05;10.10;;;6.55;;
66342;SDS011;53144;51.524;5.080;2023-08-06T06:58:31;11.75;;;6.60;;
66342;SDS011;53144;51.524;5.080;2023-08-06T07:00:57;11.73;;;6.07;;
66342;SDS011;53144;51.524;5.080;2023-08-06T07:05:48;11.27;;;6.05;;
66342;SDS011;53144;51.524;5.080;2023-08-06T07:08:14;10.13;;;5.18;;
66342;SDS011;53144;51.524;5.080;2023-08-06T07:13:06;8.48;;;4.65;;
66342;SDS011;53144;51.524;5.080;2023-08-06T07:17:57;11.43;;;5.25;;
66342;SDS011;53144;51.524;5.080;2023-08-06T07:20:22;10.77;;;4.72;;
66342;SDS011;53144;51.524;5.080;2023-08-06T07:22:48;9.32;;;4.70;;
66342;SDS011;53144;51.524;5.080;2023-08-06T07:25:15;9.00;;;4.68;;
66342;SDS011;53144;51.524;5.080;2023-08-06T07:27:40;7.30;;;4.35;;
66342;SDS011;53144;51.524;5.080;2023-08-06T07:30:06;8.80;;;3.88;;
66342;SDS011;53144;51.524;5.080;2023-08-06T07:32:32;6.38;;;3.10;;
66342;SDS011;53144;51.524;5.080;2023-08-06T07:37:25;5.18;;;2.67;;
66342;SDS011;53144;51.524;5.080;2023-08-06T07:39:54;5.68;;;3.00;;
66342;SDS011;53144;51.524;5.080;2023-08-06T07:42:20;6.90;;;2.85;;
66342;SDS011;53144;51.524;5.080;2023-08-06T07:47:21;7.05;;;2.80;;
66342;SDS011;53144;51.524;5.080;2023-08-06T07:52:12;6.90;;;2.70;;
66342;SDS011;53144;51.524;5.080;2023-08-06T07:54:37;8.13;;;3.15;;
66342;SDS011;53144;51.524;5.080;2023-08-06T07:57:03;8.38;;;2.90;;
66342;SDS011;53144;51.524;5.080;2023-08-06T07:59:28;5.35;;;2.75;;
66342;SDS011;53144;51.524;5.080;2023-08-06T08:01:54;7.47;;;2.53;;
66342;SDS011;53144;51.524;5.080;2023-08-06T08:04:19;6.47;;;2.70;;
66342;SDS011;53144;51.524;5.080;2023-08-06T08:06:46;4.30;;;2.70;;
66342;SDS011;53144;51.524;5.080;2023-08-06T08:11:38;8.35;;;2.80;;
66342;SDS011;53144;51.524;5.080;2023-08-06T08:14:04;4.57;;;3.03;;
66342;SDS011;53144;51.524;5.080;2023-08-06T08:16:29;7.43;;;3.50;;
66342;SDS011;53144;51.524;5.080;2023-08-06T08:18:55;9.65;;;3.65;;
66342;SDS011;53144;51.524;5.080;2023-08-06T08:21:20;7.03;;;3.30;;
66342;SDS011;53144;51.524;5.080;2023-08-06T08:26:11;8.20;;;3.33;;
66342;SDS011;53144;51.524;5.080;2023-08-06T08:31:01;7.78;;;3.33;;
66342;SDS011;53144;51.524;5.080;2023-08-06T08:33:27;10.75;;;3.42;;
66342;SDS011;53144;51.524;5.080;2023-08-06T08:35:52;8.50;;;3.35;;
66342;SDS011;53144;51.524;5.080;2023-08-06T08:38:18;7.00;;;3.30;;
66342;SDS011;53144;51.524;5.080;2023-08-06T08:40:45;7.75;;;3.70;;
66342;SDS011;53144;51.524;5.080;2023-08-06T08:43:14;7.93;;;3.38;;
66342;SDS011;53144;51.524;5.080;2023-08-06T08:45:41;9.13;;;3.08;;
66342;SDS011;53144;51.524;5.080;2023-08-06T08:48:08;7.15;;;2.83;;
66342;SDS011;53144;51.524;5.080;2023-08-06T08:50:36;8.27;;;2.97;;
66342;SDS011;53144;51.524;5.080;2023-08-06T08:53:02;8.57;;;3.22;;
66342;SDS011;53144;51.524;5.080;2023-08-06T08:55:28;8.60;;;2.88;;
66342;SDS011;53144;51.524;5.080;2023-08-06T08:57:53;7.10;;;2.70;;
66342;SDS011;53144;51.524;5.080;2023-08-06T09:00:19;6.65;;;2.55;;
66342;SDS011;53144;51.524;5.080;2023-08-06T09:02:44;9.95;;;3.13;;
66342;SDS011;53144;51.524;5.080;2023-08-06T09:05:11;7.50;;;2.72;;
66342;SDS011;53144;51.524;5.080;2023-08-06T09:07:42;10.10;;;2.75;;
66342;SDS011;53144;51.524;5.080;2023-08-06T09:10:12;6.43;;;2.00;;
66342;SDS011;53144;51.524;5.080;2023-08-06T09:12:42;10.30;;;3.10;;
66342;SDS011;53144;51.524;5.080;2023-08-06T09:15:08;5.97;;;1.85;;
66342;SDS011;53144;51.524;5.080;2023-08-06T09:17:34;5.28;;;1.85;;
66342;SDS011;53144;51.524;5.080;2023-08-06T09:19:59;5.32;;;1.75;;
66342;SDS011;53144;51.524;5.080;2023-08-06T09:22:34;6.28;;;1.90;;
66342;SDS011;53144;51.524;5.080;2023-08-06T09:25:03;5.20;;;1.80;;
66342;SDS011;53144;51.524;5.080;2023-08-06T09:27:34;7.32;;;2.10;;
66342;SDS011;53144;51.524;5.080;2023-08-06T09:30:00;8.15;;;1.80;;
66342;SDS011;53144;51.524;5.080;2023-08-06T09:32:25;7.32;;;1.80;;
66342;SDS011;53144;51.524;5.080;2023-08-06T09:34:54;14.15;;;2.78;;
66342;SDS011;53144;51.524;5.080;2023-08-06T09:37:21;8.15;;;1.88;;
66342;SDS011;53144;51.524;5.080;2023-08-06T09:39:47;9.70;;;1.50;;
66342;SDS011;53144;51.524;5.080;2023-08-06T09:42:14;6.03;;;1.50;;
66342;SDS011;53144;51.524;5.080;2023-08-06T09:44:40;5.90;;;1.70;;
66342;SDS011;53144;51.524;5.080;2023-08-06T09:47:06;5.53;;;1.60;;
66342;SDS011;53144;51.524;5.080;2023-08-06T09:51:59;3.03;;;1.60;;
66342;SDS011;53144;51.524;5.080;2023-08-06T09:54:26;9.05;;;2.00;;
66342;SDS011;53144;51.524;5.080;2023-08-06T09:56:52;5.13;;;1.40;;
66342;SDS011;53144;51.524;5.080;2023-08-06T09:59:19;4.95;;;1.63;;
66342;SDS011;53144;51.524;5.080;2023-08-06T10:01:44;6.75;;;1.80;;
66342;SDS011;53144;51.524;5.080;2023-08-06T10:04:10;6.57;;;1.60;;
66342;SDS011;53144;51.524;5.080;2023-08-06T10:06:38;6.65;;;1.52;;
66342;SDS011;53144;51.524;5.080;2023-08-06T10:09:03;7.55;;;1.70;;
66342;SDS011;53144;51.524;5.080;2023-08-06T10:11:30;3.80;;;1.48;;
66342;SDS011;53144;51.524;5.080;2023-08-06T10:14:05;4.78;;;1.50;;
66342;SDS011;53144;51.524;5.080;2023-08-06T10:16:35;7.22;;;1.60;;
66342;SDS011;53144;51.524;5.080;2023-08-06T10:19:02;6.45;;;1.70;;
66342;SDS011;53144;51.524;5.080;2023-08-06T10:21:30;4.18;;;1.40;;
66342;SDS011;53144;51.524;5.080;2023-08-06T10:23:56;4.40;;;1.55;;
66342;SDS011;53144;51.524;5.080;2023-08-06T10:26:25;6.53;;;1.75;;
66342;SDS011;53144;51.524;5.080;2023-08-06T10:28:52;7.78;;;1.85;;
66342;SDS011;53144;51.524;5.080;2023-08-06T10:31:17;7.00;;;1.63;;
66342;SDS011;53144;51.524;5.080;2023-08-06T10:33:47;4.63;;;1.77;;
66342;SDS011;53144;51.524;5.080;2023-08-06T10:36:13;4.63;;;1.92;;
66342;SDS011;53144;51.524;5.080;2023-08-06T10:38:49;5.45;;;1.60;;
66342;SDS011;53144;51.524;5.080;2023-08-06T10:41:28;4.87;;;1.60;;
66342;SDS011;53144;51.524;5.080;2023-08-06T10:44:07;2.50;;;1.83;;
66342;SDS011;53144;51.524;5.080;2023-08-06T10:46:33;1.63;;;1.40;;
66342;SDS011;53144;51.524;5.080;2023-08-06T10:48:59;3.45;;;1.70;;
66342;SDS011;53144;51.524;5.080;2023-08-06T10:51:25;2.72;;;1.85;;
66342;SDS011;53144;51.524;5.080;2023-08-06T10:53:50;3.72;;;1.60;;
66342;SDS011;53144;51.524;5.080;2023-08-06T10:56:23;4.35;;;1.70;;
66342;SDS011;53144;51.524;5.080;2023-08-06T10:58:56;4.93;;;1.70;;
66342;SDS011;53144;51.524;5.080;2023-08-06T11:01:27;3.40;;;1.60;;
66342;SDS011;53144;51.524;5.080;2023-08-06T11:03:54;3.58;;;1.48;;
66342;SDS011;53144;51.524;5.080;2023-08-06T11:06:20;3.70;;;1.40;;
66342;SDS011;53144;51.524;5.080;2023-08-06T11:08:47;4.10;;;1.30;;
66342;SDS011;53144;51.524;5.080;2023-08-06T11:11:17;3.40;;;1.25;;
66342;SDS011;53144;51.524;5.080;2023-08-06T11:13:43;3.53;;;1.60;;
66342;SDS011;53144;51.524;5.080;2023-08-06T11:16:21;4.47;;;1.48;;
66342;SDS011;53144;51.524;5.080;2023-08-06T11:18:51;4.55;;;1.52;;
66342;SDS011;53144;51.524;5.080;2023-08-06T11:21:19;3.70;;;1.30;;
66342;SDS011;53144;51.524;5.080;2023-08-06T11:23:45;5.68;;;1.30;;
66342;SDS011;53144;51.524;5.080;2023-08-06T11:26:11;4.55;;;1.35;;
66342;SDS011;53144;51.524;5.080;2023-08-06T11:28:36;2.95;;;1.20;;
66342;SDS011;53144;51.524;5.080;2023-08-06T11:31:02;6.28;;;1.27;;
66342;SDS011;53144;51.524;5.080;2023-08-06T11:33:28;4.25;;;1.17;;
66342;SDS011;53144;51.524;5.080;2023-08-06T11:35:54;3.42;;;1.15;;
66342;SDS011;53144;51.524;5.080;2023-08-06T11:38:21;2.97;;;1.25;;
66342;SDS011;53144;51.524;5.080;2023-08-06T11:40:47;5.57;;;1.50;;
66342;SDS011;53144;51.524;5.080;2023-08-06T11:43:13;2.75;;;1.35;;
66342;SDS011;53144;51.524;5.080;2023-08-06T11:45:39;5.82;;;1.55;;
66342;SDS011;53144;51.524;5.080;2023-08-06T11:48:05;4.20;;;1.50;;
66342;SDS011;53144;51.524;5.080;2023-08-06T11:50:35;3.58;;;2.05;;
66342;SDS011;53144;51.524;5.080;2023-08-06T11:53:02;4.18;;;1.42;;
66342;SDS011;53144;51.524;5.080;2023-08-06T11:55:28;2.15;;;1.40;;
66342;SDS011;53144;51.524;5.080;2023-08-06T11:57:54;4.30;;;1.30;;
66342;SDS011;53144;51.524;5.080;2023-08-06T12:00:22;4.25;;;1.40;;
66342;SDS011;53144;51.524;5.080;2023-08-06T12:02:49;4.25;;;1.30;;
66342;SDS011;53144;51.524;5.080;2023-08-06T12:05:17;3.05;;;1.30;;
66342;SDS011;53144;51.524;5.080;2023-08-06T12:07:57;3.50;;;1.20;;
66342;SDS011;53144;51.524;5.080;2023-08-06T12:10:24;3.50;;;1.25;;
66342;SDS011;53144;51.524;5.080;2023-08-06T12:12:51;1.25;;;0.90;;
66342;SDS011;53144;51.524;5.080;2023-08-06T12:15:17;8.25;;;2.03;;
66342;SDS011;53144;51.524;5.080;2023-08-06T12:17:43;2.47;;;1.30;;
66342;SDS011;53144;51.524;5.080;2023-08-06T12:20:09;5.35;;;1.23;;
66342;SDS011;53144;51.524;5.080;2023-08-06T12:22:35;4.13;;;1.42;;
66342;SDS011;53144;51.524;5.080;2023-08-06T12:25:03;3.17;;;1.33;;
66342;SDS011;53144;51.524;5.080;2023-08-06T12:27:31;3.60;;;1.17;;
66342;SDS011;53144;51.524;5.080;2023-08-06T12:29:57;5.72;;;1.38;;
66342;SDS011;53144;51.524;5.080;2023-08-06T12:32:22;4.05;;;1.20;;
66342;SDS011;53144;51.524;5.080;2023-08-06T12:34:48;5.30;;;1.05;;
66342;SDS011;53144;51.524;5.080;2023-08-06T12:37:13;7.15;;;1.40;;
66342;SDS011;53144;51.524;5.080;2023-08-06T12:39:39;3.47;;;1.17;;
66342;SDS011;53144;51.524;5.080;2023-08-06T12:42:04;5.15;;;1.38;;
66342;SDS011;53144;51.524;5.080;2023-08-06T12:44:31;5.97;;;1.30;;
66342;SDS011;53144;51.524;5.080;2023-08-06T12:46:57;4.18;;;1.52;;
66342;SDS011;53144;51.524;5.080;2023-08-06T12:49:22;9.40;;;1.55;;
66342;SDS011;53144;51.524;5.080;2023-08-06T12:51:49;6.40;;;1.17;;
66342;SDS011;53144;51.524;5.080;2023-08-06T12:54:19;6.43;;;1.75;;
66342;SDS011;53144;51.524;5.080;2023-08-06T12:56:46;6.53;;;1.63;;
66342;SDS011;53144;51.524;5.080;2023-08-06T12:59:13;3.45;;;1.30;;
66342;SDS011;53144;51.524;5.080;2023-08-06T13:01:39;5.18;;;1.48;;
66342;SDS011;53144;51.524;5.080;2023-08-06T13:04:05;5.57;;;1.35;;
66342;SDS011;53144;51.524;5.080;2023-08-06T13:06:31;5.75;;;1.60;;
66342;SDS011;53144;51.524;5.080;2023-08-06T13:09:00;5.57;;;1.80;;
66342;SDS011;53144;51.524;5.080;2023-08-06T13:11:26;5.00;;;1.30;;
66342;SDS011;53144;51.524;5.080;2023-08-06T13:13:52;5.60;;;1.38;;
66342;SDS011;53144;51.524;5.080;2023-08-06T13:16:17;5.35;;;1.40;;
66342;SDS011;53144;51.524;5.080;2023-08-06T13:18:42;3.90;;;1.35;;
66342;SDS011;53144;51.524;5.080;2023-08-06T13:21:08;3.53;;;1.65;;
66342;SDS011;53144;51.524;5.080;2023-08-06T13:23:33;6.78;;;1.45;;
66342;SDS011;53144;51.524;5.080;2023-08-06T13:25:59;7.07;;;1.90;;
66342;SDS011;53144;51.524;5.080;2023-08-06T13:28:24;5.03;;;1.70;;
66342;SDS011;53144;51.524;5.080;2023-08-06T13:30:50;5.07;;;1.80;;
66342;SDS011;53144;51.524;5.080;2023-08-06T13:33:15;5.20;;;1.67;;
66342;SDS011;53144;51.524;5.080;2023-08-06T13:35:41;4.80;;;1.90;;
66342;SDS011;53144;51.524;5.080;2023-08-06T13:38:06;5.20;;;1.73;;
66342;SDS011;53144;51.524;5.080;2023-08-06T13:40:32;5.28;;;1.60;;
66342;SDS011;53144;51.524;5.080;2023-08-06T13:42:58;6.10;;;1.60;;
66342;SDS011;53144;51.524;5.080;2023-08-06T13:45:23;4.30;;;1.60;;
66342;SDS011;53144;51.524;5.080;2023-08-06T13:47:49;7.18;;;1.80;;
66342;SDS011;53144;51.524;5.080;2023-08-06T13:50:15;3.47;;;1.58;;
66342;SDS011;53144;51.524;5.080;2023-08-06T13:52:40;4.75;;;1.90;;
66342;SDS011;53144;51.524;5.080;2023-08-06T13:55:06;3.65;;;1.50;;
66342;SDS011;53144;51.524;5.080;2023-08-06T13:57:32;3.58;;;1.55;;
66342;SDS011;53144;51.524;5.080;2023-08-06T13:59:59;4.45;;;1.92;;
66342;SDS011;53144;51.524;5.080;2023-08-06T14:02:24;3.60;;;1.45;;
66342;SDS011;53144;51.524;5.080;2023-08-06T14:04:51;4.95;;;1.70;;
66342;SDS011;53144;51.524;5.080;2023-08-06T14:07:17;5.57;;;1.65;;
66342;SDS011;53144;51.524;5.080;2023-08-06T14:09:42;4.50;;;1.67;;
66342;SDS011;53144;51.524;5.080;2023-08-06T14:12:09;7.22;;;1.45;;
66342;SDS011;53144;51.524;5.080;2023-08-06T14:14:34;4.72;;;1.77;;
66342;SDS011;53144;51.524;5.080;2023-08-06T14:17:00;4.13;;;1.50;;
66342;SDS011;53144;51.524;5.080;2023-08-06T14:19:25;5.07;;;1.48;;
66342;SDS011;53144;51.524;5.080;2023-08-06T14:21:51;2.25;;;1.33;;
66342;SDS011;53144;51.524;5.080;2023-08-06T14:24:16;3.53;;;1.42;;
66342;SDS011;53144;51.524;5.080;2023-08-06T14:26:42;7.03;;;1.40;;
66342;SDS011;53144;51.524;5.080;2023-08-06T14:29:07;5.07;;;1.63;;
66342;SDS011;53144;51.524;5.080;2023-08-06T14:31:33;5.00;;;1.50;;
66342;SDS011;53144;51.524;5.080;2023-08-06T14:33:58;5.57;;;1.58;;
66342;SDS011;53144;51.524;5.080;2023-08-06T14:36:25;4.65;;;1.63;;
66342;SDS011;53144;51.524;5.080;2023-08-06T14:38:51;2.47;;;1.10;;
66342;SDS011;53144;51.524;5.080;2023-08-06T14:41:16;6.72;;;1.48;;
66342;SDS011;53144;51.524;5.080;2023-08-06T14:43:42;6.68;;;1.60;;
66342;SDS011;53144;51.524;5.080;2023-08-06T14:46:07;4.03;;;1.27;;
66342;SDS011;53144;51.524;5.080;2023-08-06T14:48:33;5.75;;;1.20;;
66342;SDS011;53144;51.524;5.080;2023-08-06T14:50:58;5.85;;;1.27;;
66342;SDS011;53144;51.524;5.080;2023-08-06T14:53:23;5.32;;;1.30;;
66342;SDS011;53144;51.524;5.080;2023-08-06T14:55:49;10.00;;;1.65;;
66342;SDS011;53144;51.524;5.080;2023-08-06T14:58:15;4.38;;;1.30;;
66342;SDS011;53144;51.524;5.080;2023-08-06T15:00:40;7.43;;;1.38;;
66342;SDS011;53144;51.524;5.080;2023-08-06T15:03:06;5.28;;;1.20;;
66342;SDS011;53144;51.524;5.080;2023-08-06T15:05:31;3.78;;;1.30;;
66342;SDS011;53144;51.524;5.080;2023-08-06T15:07:57;7.60;;;1.40;;
66342;SDS011;53144;51.524;5.080;2023-08-06T15:10:22;5.32;;;1.20;;
66342;SDS011;53144;51.524;5.080;2023-08-06T15:12:48;4.15;;;0.88;;
66342;SDS011;53144;51.524;5.080;2023-08-06T15:15:13;4.32;;;0.90;;
66342;SDS011;53144;51.524;5.080;2023-08-06T15:17:39;2.15;;;0.73;;
66342;SDS011;53144;51.524;5.080;2023-08-06T15:20:04;2.60;;;0.85;;
66342;SDS011;53144;51.524;5.080;2023-08-06T15:22:30;3.10;;;0.90;;